createdAt,value
2023-05-08T00:01:57.662Z,19.35
2023-05-08T00:04:24.088Z,18.98
2023-05-08T00:06:51.560Z,21.35
2023-05-08T00:09:18.037Z,20.60
2023-05-08T00:11:44.418Z,16.05
2023-05-08T00:14:10.779Z,20.77
2023-05-08T00:16:37.345Z,17.67
2023-05-08T00:19:03.838Z,18.10
2023-05-08T00:21:31.069Z,20.92
2023-05-08T00:23:57.439Z,15.82
2023-05-08T00:26:23.833Z,17.48
2023-05-08T00:28:50.207Z,18.58
2023-05-08T00:31:16.564Z,19.33
2023-05-08T00:33:42.943Z,17.55
2023-05-08T00:36:09.464Z,18.15
2023-05-08T00:38:36.707Z,16.85
2023-05-08T00:41:03.448Z,18.45
2023-05-08T00:43:29.965Z,21.58
2023-05-08T00:45:57.237Z,19.58
2023-05-08T00:48:24.877Z,18.27
2023-05-08T00:50:52.542Z,19.35
2023-05-08T00:53:20.715Z,19.65
2023-05-08T00:55:47.356Z,15.10
2023-05-08T00:58:13.785Z,15.00
2023-05-08T01:00:42.286Z,17.63
2023-05-08T01:03:09.443Z,18.42
2023-05-08T01:05:36.646Z,16.88
2023-05-08T01:08:03.055Z,15.55
2023-05-08T01:10:35.633Z,17.60
2023-05-08T01:13:12.102Z,18.58
2023-05-08T01:15:44.304Z,17.25
2023-05-08T01:18:28.107Z,20.65
2023-05-08T01:21:22.936Z,17.10
2023-05-08T01:24:17.435Z,18.80
2023-05-08T01:27:13.557Z,20.23
2023-05-08T01:29:52.043Z,17.38
2023-05-08T01:35:03.824Z,19.40
2023-05-08T01:37:38.275Z,22.05
2023-05-08T01:40:18.340Z,20.70
2023-05-08T01:43:00.734Z,19.40
2023-05-08T01:45:32.109Z,18.25
2023-05-08T01:48:08.123Z,22.95
2023-05-08T01:50:38.154Z,20.65
2023-05-08T01:53:17.407Z,22.20
2023-05-08T01:55:44.234Z,21.77
2023-05-08T01:58:11.018Z,21.13
2023-05-08T02:00:40.151Z,23.02
2023-05-08T02:03:08.111Z,25.05
2023-05-08T02:05:37.189Z,18.35
2023-05-08T02:08:04.176Z,21.08
2023-05-08T02:10:30.932Z,20.27
2023-05-08T02:12:58.629Z,20.83
2023-05-08T02:15:27.550Z,18.35
2023-05-08T02:17:54.449Z,19.90
2023-05-08T02:20:21.395Z,18.40
2023-05-08T02:22:50.425Z,19.70
2023-05-08T02:25:17.447Z,19.23
2023-05-08T02:27:46.865Z,22.30
2023-05-08T02:30:14.672Z,24.33
2023-05-08T02:32:43.471Z,19.75
2023-05-08T02:35:13.274Z,22.98
2023-05-08T02:37:41.553Z,21.63
2023-05-08T02:40:09.870Z,21.25
2023-05-08T02:42:36.450Z,23.25
2023-05-08T02:45:03.745Z,23.00
2023-05-08T02:47:46.447Z,20.85
2023-05-08T02:50:45.964Z,19.88
2023-05-08T02:53:18.707Z,23.65
2023-05-08T02:55:57.932Z,21.23
2023-05-08T02:58:31.100Z,20.98
2023-05-08T03:01:07.642Z,22.58
2023-05-08T03:03:45.690Z,22.95
2023-05-08T03:06:15.510Z,19.45
2023-05-08T03:08:43.104Z,22.40
2023-05-08T03:11:13.004Z,21.73
2023-05-08T03:13:41.929Z,20.85
2023-05-08T03:16:11.983Z,19.27
2023-05-08T03:18:52.514Z,19.33
2023-05-08T03:21:21.190Z,20.20
2023-05-08T03:23:49.897Z,19.50
2023-05-08T03:26:19.510Z,20.38
2023-05-08T03:28:49.682Z,20.95
2023-05-08T03:31:22.651Z,23.15
2023-05-08T03:33:52.474Z,20.02
2023-05-08T03:36:19.098Z,20.02
2023-05-08T03:38:45.573Z,18.08
2023-05-08T03:41:12.683Z,18.13
2023-05-08T03:43:39.588Z,22.67
2023-05-08T03:46:07.046Z,24.33
2023-05-08T03:48:34.357Z,21.13
2023-05-08T03:51:04.876Z,23.25
2023-05-08T03:53:32.380Z,23.15
2023-05-08T03:55:59.358Z,19.65
2023-05-08T03:58:48.678Z,21.23
2023-05-08T04:01:24.488Z,20.05
2023-05-08T04:04:05.218Z,22.10
2023-05-08T04:06:48.580Z,20.70
2023-05-08T04:09:31.548Z,21.40
2023-05-08T04:12:07.913Z,20.33
2023-05-08T04:14:45.830Z,25.05
2023-05-08T04:17:14.862Z,21.88
2023-05-08T04:19:45.973Z,22.77
2023-05-08T04:22:13.231Z,24.08
2023-05-08T04:24:43.369Z,23.63
2023-05-08T04:27:10.254Z,20.73
2023-05-08T04:29:36.939Z,19.23
2023-05-08T04:32:05.502Z,22.10
2023-05-08T04:34:31.921Z,22.30
2023-05-08T04:36:58.369Z,22.17
2023-05-08T04:39:24.918Z,19.10
2023-05-08T04:41:52.579Z,21.20
2023-05-08T04:44:19.314Z,19.65
2023-05-08T04:46:45.771Z,21.80
2023-05-08T04:49:12.144Z,19.02
2023-05-08T04:51:38.599Z,22.55
2023-05-08T04:54:05.086Z,23.77
2023-05-08T04:56:31.470Z,19.63
2023-05-08T04:58:57.885Z,23.33
2023-05-08T05:01:24.334Z,21.75
2023-05-08T05:03:50.840Z,22.40
2023-05-08T05:06:17.218Z,22.15
2023-05-08T05:08:43.650Z,22.10
2023-05-08T05:11:10.028Z,26.40
2023-05-08T05:13:36.376Z,22.83
2023-05-08T05:16:02.785Z,23.48
2023-05-08T05:18:29.240Z,25.52
2023-05-08T05:20:57.903Z,21.52
2023-05-08T05:23:24.286Z,30.42
2023-05-08T05:25:50.678Z,23.75
2023-05-08T05:28:17.079Z,22.98
2023-05-08T05:30:47.008Z,25.33
2023-05-08T05:33:13.405Z,25.85
2023-05-08T05:35:39.989Z,26.13
2023-05-08T05:38:06.550Z,32.67
2023-05-08T05:40:32.904Z,31.42
2023-05-08T05:42:59.672Z,33.35
2023-05-08T05:45:26.081Z,35.75
2023-05-08T05:47:53.979Z,39.45
2023-05-08T05:50:21.461Z,37.25
2023-05-08T05:52:48.096Z,41.85
2023-05-08T05:55:14.698Z,49.47
2023-05-08T05:57:41.313Z,42.92
2023-05-08T06:00:09.155Z,42.17
2023-05-08T06:02:39.092Z,39.00
2023-05-08T06:05:05.905Z,44.60
2023-05-08T06:07:32.354Z,44.08
2023-05-08T06:09:58.842Z,46.15
2023-05-08T06:12:25.577Z,45.08
2023-05-08T06:14:52.397Z,47.03
2023-05-08T06:17:19.139Z,43.40
2023-05-08T06:19:50.266Z,41.60
2023-05-08T06:22:18.158Z,43.80
2023-05-08T06:24:44.640Z,44.42
2023-05-08T06:27:11.668Z,42.15
2023-05-08T06:29:38.040Z,42.03
2023-05-08T06:32:04.586Z,44.05
2023-05-08T06:34:31.509Z,47.05
2023-05-08T06:36:57.961Z,44.30
2023-05-08T06:39:24.423Z,42.50
2023-05-08T06:41:50.864Z,46.15
2023-05-08T06:44:17.260Z,43.22
2023-05-08T06:46:43.832Z,41.22
2023-05-08T06:49:10.503Z,45.13
2023-05-08T06:51:38.224Z,41.40
2023-05-08T06:54:07.679Z,40.50
2023-05-08T06:56:35.037Z,47.88
2023-05-08T06:59:08.297Z,41.83
2023-05-08T07:01:35.141Z,37.92
2023-05-08T07:04:01.534Z,37.17
2023-05-08T07:06:27.892Z,36.28
2023-05-08T07:08:54.267Z,39.20
2023-05-08T07:11:20.684Z,37.75
2023-05-08T07:13:48.198Z,37.45
2023-05-08T07:16:15.646Z,36.33
2023-05-08T07:18:42.491Z,36.58
2023-05-08T07:21:09.018Z,35.75
2023-05-08T07:23:35.495Z,37.78
2023-05-08T07:26:02.110Z,37.70
2023-05-08T07:28:28.664Z,36.20
2023-05-08T07:30:55.037Z,34.42
2023-05-08T07:33:21.422Z,35.58
2023-05-08T07:35:47.849Z,35.95
2023-05-08T07:38:14.220Z,37.58
2023-05-08T07:40:40.692Z,33.67
2023-05-08T07:43:07.108Z,36.10
2023-05-08T07:45:34.741Z,37.78
2023-05-08T07:48:01.455Z,38.55
2023-05-08T07:50:28.022Z,35.03
2023-05-08T07:52:54.421Z,38.78
2023-05-08T07:55:21.415Z,35.40
2023-05-08T07:57:47.847Z,35.33
2023-05-08T08:00:15.517Z,33.35
2023-05-08T08:02:43.142Z,41.53
2023-05-08T08:05:10.032Z,35.78
2023-05-08T08:07:36.610Z,37.60
2023-05-08T08:10:04.514Z,37.00
2023-05-08T08:12:31.960Z,35.75
2023-05-08T08:14:58.393Z,36.83
2023-05-08T08:17:26.967Z,33.13
2023-05-08T08:19:55.058Z,37.50
2023-05-08T08:22:21.787Z,36.35
2023-05-08T08:24:48.190Z,35.13
2023-05-08T08:27:14.716Z,34.03
2023-05-08T08:29:41.230Z,32.35
2023-05-08T08:32:07.947Z,31.33
2023-05-08T08:34:34.524Z,35.35
2023-05-08T08:37:00.950Z,32.88
2023-05-08T08:39:27.527Z,37.83
2023-05-08T08:41:54.025Z,39.03
2023-05-08T08:44:20.530Z,35.45
2023-05-08T08:46:51.609Z,32.72
2023-05-08T08:49:29.590Z,32.20
2023-05-08T08:51:59.101Z,33.17
2023-05-08T08:54:28.746Z,32.55
2023-05-08T08:56:56.122Z,32.63
2023-05-08T08:59:24.315Z,34.55
2023-05-08T09:01:55.431Z,34.08
2023-05-08T09:04:21.881Z,36.30
2023-05-08T09:06:49.456Z,36.78
2023-05-08T09:09:16.422Z,35.88
2023-05-08T09:11:43.726Z,33.80
2023-05-08T09:14:10.126Z,32.13
2023-05-08T09:16:36.679Z,33.00
2023-05-08T09:19:04.494Z,29.80
2023-05-08T09:21:32.030Z,30.60
2023-05-08T09:23:59.889Z,31.17
2023-05-08T09:26:34.152Z,32.08
2023-05-08T09:29:16.049Z,30.55
2023-05-08T09:31:46.355Z,30.95
2023-05-08T09:34:29.530Z,32.22
2023-05-08T09:37:04.740Z,31.98
2023-05-08T09:39:31.142Z,37.63
2023-05-08T09:41:58.879Z,32.50
2023-05-08T09:44:25.403Z,35.13
2023-05-08T09:46:51.951Z,31.30
2023-05-08T09:49:18.816Z,36.63
2023-05-08T09:51:53.880Z,36.83
2023-05-08T09:54:20.683Z,41.63
2023-05-08T09:56:47.195Z,34.67
2023-05-08T09:59:23.997Z,38.08
2023-05-08T10:01:50.969Z,37.85
2023-05-08T10:04:17.378Z,42.38
2023-05-08T10:06:43.847Z,42.13
2023-05-08T10:09:10.429Z,38.03
2023-05-08T10:11:39.111Z,39.00
2023-05-08T10:14:05.953Z,51.63
2023-05-08T10:16:37.186Z,43.90
2023-05-08T10:19:12.515Z,47.17
2023-05-08T10:21:44.570Z,44.38
2023-05-08T10:24:14.478Z,51.78
2023-05-08T10:26:53.663Z,41.80
2023-05-08T10:29:41.996Z,43.60
2023-05-08T10:32:14.211Z,42.88
2023-05-08T10:34:42.083Z,47.55
2023-05-08T10:37:12.551Z,49.72
2023-05-08T10:39:39.917Z,40.97
2023-05-08T10:42:06.873Z,47.80
2023-05-08T10:44:33.445Z,51.47
2023-05-08T10:47:17.710Z,50.60
2023-05-08T10:49:52.036Z,49.17
2023-05-08T10:52:37.932Z,54.72
2023-05-08T10:55:24.099Z,49.78
2023-05-08T10:58:06.259Z,58.50
2023-05-08T11:00:53.483Z,59.63
2023-05-08T11:03:30.535Z,56.42
2023-05-08T11:05:59.541Z,58.15
2023-05-08T11:08:30.398Z,57.20
2023-05-08T11:11:03.169Z,67.63
2023-05-08T11:13:53.674Z,64.15
2023-05-08T11:16:54.974Z,87.57
2023-05-08T11:19:22.783Z,105.13
2023-05-08T11:22:13.940Z,109.53
2023-05-08T11:24:46.873Z,112.80
2023-05-08T11:27:14.525Z,117.47
2023-05-08T11:29:41.682Z,125.95
2023-05-08T11:32:08.208Z,122.90
2023-05-08T11:34:44.026Z,122.82
2023-05-08T11:37:11.994Z,112.75
2023-05-08T11:39:38.479Z,112.38
2023-05-08T11:42:29.613Z,102.53
2023-05-08T11:45:06.182Z,94.40
2023-05-08T11:47:38.646Z,95.95
2023-05-08T11:50:05.888Z,93.47
2023-05-08T11:52:34.165Z,88.22
2023-05-08T11:55:08.788Z,81.22
2023-05-08T11:57:35.521Z,88.22
2023-05-08T12:00:09.804Z,82.80
2023-05-08T12:02:38.384Z,76.63
2023-05-08T12:05:06.248Z,76.75
2023-05-08T12:07:32.925Z,80.43
2023-05-08T12:10:03.004Z,82.15
2023-05-08T12:12:37.547Z,82.13
2023-05-08T12:15:14.684Z,88.28
2023-05-08T12:17:42.485Z,88.72
2023-05-08T12:20:17.029Z,89.95
2023-05-08T12:22:52.482Z,80.13
2023-05-08T12:25:19.573Z,85.45
2023-05-08T12:27:46.335Z,79.18
2023-05-08T12:30:14.633Z,82.00
2023-05-08T12:32:42.643Z,80.15
2023-05-08T12:35:10.209Z,75.65
2023-05-08T12:37:37.942Z,77.15
2023-05-08T12:40:05.179Z,76.15
2023-05-08T12:42:45.396Z,74.07
2023-05-08T12:45:18.526Z,72.70
2023-05-08T12:47:49.189Z,64.55
2023-05-08T12:50:17.954Z,63.88
2023-05-08T12:52:44.460Z,67.28
2023-05-08T12:55:40.679Z,64.72
2023-05-08T12:58:06.995Z,63.40
2023-05-08T13:00:39.568Z,65.80
2023-05-08T13:03:07.546Z,61.75
2023-05-08T13:05:36.588Z,66.03
2023-05-08T13:08:04.545Z,65.03
2023-05-08T13:10:50.513Z,63.95
2023-05-08T13:13:21.613Z,62.55
2023-05-08T13:15:49.601Z,60.75
2023-05-08T13:18:18.005Z,62.28
2023-05-08T13:20:44.552Z,57.17
2023-05-08T13:23:11.298Z,59.05
2023-05-08T13:25:38.872Z,60.20
2023-05-08T13:28:07.205Z,58.25
2023-05-08T13:30:34.394Z,58.42
2023-05-08T13:33:01.204Z,61.72
2023-05-08T13:35:30.461Z,56.47
2023-05-08T13:37:57.501Z,57.50
2023-05-08T13:40:24.703Z,56.83
2023-05-08T13:42:51.435Z,62.65
2023-05-08T13:45:20.888Z,60.65
2023-05-08T13:47:48.844Z,60.80
2023-05-08T13:50:16.890Z,59.35
2023-05-08T13:52:43.274Z,60.55
2023-05-08T13:55:11.655Z,58.05
2023-05-08T13:57:38.949Z,51.08
2023-05-08T14:00:06.648Z,51.70
2023-05-08T14:02:33.205Z,57.63
2023-05-08T14:04:59.682Z,47.88
2023-05-08T14:07:26.045Z,48.85
2023-05-08T14:09:52.773Z,66.13
2023-05-08T14:12:19.179Z,73.60
2023-05-08T14:14:45.649Z,69.57
2023-05-08T14:17:12.020Z,67.38
2023-05-08T14:19:38.422Z,63.88
2023-05-08T14:22:04.957Z,71.38
2023-05-08T14:24:31.396Z,66.60
2023-05-08T14:26:59.365Z,64.18
2023-05-08T14:29:25.756Z,61.97
2023-05-08T14:31:52.305Z,55.88
2023-05-08T14:34:18.708Z,56.22
2023-05-08T14:36:45.118Z,48.95
2023-05-08T14:39:11.704Z,39.53
2023-05-08T14:41:39.544Z,42.60
2023-05-08T14:44:05.935Z,38.15
2023-05-08T14:46:32.401Z,34.40
2023-05-08T14:48:58.870Z,31.55
2023-05-08T14:51:25.345Z,37.63
2023-05-08T14:53:51.910Z,56.15
2023-05-08T14:56:18.635Z,60.45
2023-05-08T14:58:46.045Z,40.63
2023-05-08T15:01:12.478Z,41.83
2023-05-08T15:03:39.014Z,35.38
2023-05-08T15:06:05.911Z,29.92
2023-05-08T15:08:32.369Z,28.33
2023-05-08T15:10:59.102Z,29.50
2023-05-08T15:13:25.624Z,32.08
2023-05-08T15:15:52.172Z,31.02
2023-05-08T15:18:18.645Z,32.33
2023-05-08T15:20:45.082Z,35.38
2023-05-08T15:23:11.475Z,35.60
2023-05-08T15:25:37.842Z,34.05
2023-05-08T15:28:04.211Z,33.63
2023-05-08T15:30:30.648Z,33.38
2023-05-08T15:32:57.110Z,36.40
2023-05-08T15:35:23.591Z,34.65
2023-05-08T15:37:50.019Z,32.10
2023-05-08T15:40:16.517Z,33.40
2023-05-08T15:42:42.949Z,32.75
2023-05-08T15:45:09.890Z,32.58
2023-05-08T15:47:36.410Z,33.60
2023-05-08T15:50:02.979Z,36.00
2023-05-08T15:52:29.468Z,52.60
2023-05-08T15:54:55.875Z,54.05
2023-05-08T15:57:22.344Z,59.08
2023-05-08T15:59:48.799Z,65.55
2023-05-08T16:02:15.427Z,61.17
2023-05-08T16:04:41.839Z,67.13
2023-05-08T16:07:08.248Z,68.20
2023-05-08T16:09:34.666Z,71.00
2023-05-08T16:12:01.044Z,69.95
2023-05-08T16:14:27.479Z,75.25
2023-05-08T16:16:53.860Z,69.40
2023-05-08T16:19:20.238Z,69.40
2023-05-08T16:21:47.659Z,72.07
2023-05-08T16:24:14.372Z,67.68
2023-05-08T16:26:40.936Z,69.65
2023-05-08T16:29:07.315Z,63.15
2023-05-08T16:31:33.736Z,61.22
2023-05-08T16:34:00.229Z,71.03
2023-05-08T16:36:27.519Z,60.17
2023-05-08T16:38:54.189Z,56.38
2023-05-08T16:41:21.179Z,60.05
2023-05-08T16:43:47.582Z,64.78
2023-05-08T16:46:14.323Z,55.08
2023-05-08T16:48:41.432Z,59.50
2023-05-08T16:51:08.261Z,52.28
2023-05-08T16:53:34.655Z,51.95
2023-05-08T16:56:01.027Z,52.33
2023-05-08T16:58:27.750Z,54.05
2023-05-08T17:00:54.225Z,54.45
2023-05-08T17:03:20.900Z,51.38
2023-05-08T17:05:47.400Z,52.63
2023-05-08T17:08:13.841Z,50.75
2023-05-08T17:10:41.270Z,45.85
2023-05-08T17:13:07.740Z,47.72
2023-05-08T17:15:34.275Z,54.97
2023-05-08T17:18:00.790Z,54.70
2023-05-08T17:20:27.261Z,46.97
2023-05-08T17:22:54.081Z,46.05
2023-05-08T17:25:22.291Z,52.95
2023-05-08T17:27:48.686Z,53.65
2023-05-08T17:30:16.699Z,50.63
2023-05-08T17:32:43.282Z,50.50
2023-05-08T17:35:10.330Z,48.75
2023-05-08T17:37:36.815Z,51.08
2023-05-08T17:40:03.655Z,50.65
2023-05-08T17:42:30.246Z,50.38
2023-05-08T17:44:56.809Z,50.70
2023-05-08T17:47:23.304Z,49.42
2023-05-08T17:49:49.790Z,54.40
2023-05-08T17:52:16.200Z,53.55
2023-05-08T17:54:42.608Z,50.80
2023-05-08T17:57:09.010Z,49.83
2023-05-08T17:59:35.436Z,47.45
2023-05-08T18:02:02.083Z,49.70
2023-05-08T18:04:28.689Z,50.85
2023-05-08T18:06:55.068Z,51.03
2023-05-08T18:09:21.513Z,46.75
2023-05-08T18:11:47.939Z,76.57
2023-05-08T18:14:14.335Z,53.60
2023-05-08T18:16:40.733Z,53.17
2023-05-08T18:19:07.204Z,51.90
2023-05-08T18:21:33.661Z,54.78
2023-05-08T18:24:00.815Z,50.45
2023-05-08T18:26:27.513Z,52.55
2023-05-08T18:28:54.093Z,57.58
2023-05-08T18:31:20.822Z,52.50
2023-05-08T18:33:47.390Z,55.75
2023-05-08T18:36:13.838Z,49.05
2023-05-08T18:38:41.713Z,53.53
2023-05-08T18:41:08.192Z,51.25
2023-05-08T18:43:34.821Z,57.45
2023-05-08T18:46:08.404Z,48.92
2023-05-08T18:48:35.520Z,53.78
2023-05-08T18:51:02.117Z,54.97
2023-05-08T18:53:30.473Z,53.03
2023-05-08T18:55:57.222Z,56.67
2023-05-08T18:58:23.689Z,56.60
2023-05-08T19:00:50.201Z,50.13
2023-05-08T19:03:18.209Z,50.75
2023-05-08T19:05:44.903Z,47.80
2023-05-08T19:08:13.421Z,46.75
2023-05-08T19:10:39.840Z,48.53
2023-05-08T19:13:06.477Z,47.50
2023-05-08T19:15:32.878Z,48.25
2023-05-08T19:17:59.333Z,50.10
2023-05-08T19:20:25.780Z,42.45
2023-05-08T19:22:52.219Z,43.85
2023-05-08T19:25:18.653Z,42.15
2023-05-08T19:27:45.097Z,41.17
2023-05-08T19:30:12.327Z,43.03
2023-05-08T19:32:38.939Z,42.55
2023-05-08T19:35:05.711Z,44.03
2023-05-08T19:37:32.087Z,43.55
2023-05-08T19:39:58.444Z,37.28
2023-05-08T19:42:24.925Z,38.63
2023-05-08T19:44:51.412Z,41.90
2023-05-08T19:47:17.988Z,46.05
2023-05-08T19:49:44.356Z,40.30
2023-05-08T19:52:11.580Z,40.33
2023-05-08T19:54:37.958Z,41.10
2023-05-08T19:57:04.331Z,37.58
2023-05-08T19:59:30.868Z,41.28
2023-05-08T20:01:57.409Z,40.83
2023-05-08T20:04:24.776Z,37.42
2023-05-08T20:06:51.273Z,41.65
2023-05-08T20:09:17.971Z,38.17
2023-05-08T20:11:44.507Z,36.80
2023-05-08T20:14:10.884Z,38.92
2023-05-08T20:16:37.789Z,42.85
2023-05-08T20:19:04.199Z,40.72
2023-05-08T20:21:32.440Z,42.35
2023-05-08T20:23:59.297Z,40.80
2023-05-08T20:26:27.088Z,40.78
2023-05-08T20:28:53.532Z,40.97
2023-05-08T20:31:19.983Z,37.38
2023-05-08T20:33:46.505Z,41.53
2023-05-08T20:36:15.186Z,40.58
2023-05-08T20:38:41.606Z,35.15
2023-05-08T20:41:08.083Z,39.72
2023-05-08T20:43:34.674Z,40.78
2023-05-08T20:46:01.090Z,39.05
2023-05-08T20:48:27.651Z,37.50
2023-05-08T20:50:54.291Z,39.08
2023-05-08T20:53:20.898Z,40.97
2023-05-08T20:55:47.249Z,39.72
2023-05-08T20:58:13.708Z,45.47
2023-05-08T21:00:40.142Z,44.72
2023-05-08T21:03:06.586Z,43.83
2023-05-08T21:05:33.101Z,38.42
2023-05-08T21:08:02.133Z,41.80
2023-05-08T21:10:30.582Z,42.72
2023-05-08T21:12:57.061Z,41.35
2023-05-08T21:15:23.450Z,42.40
2023-05-08T21:17:50.579Z,41.00
2023-05-08T21:20:17.322Z,44.85
2023-05-08T21:22:46.103Z,41.28
2023-05-08T21:25:14.889Z,41.45
2023-05-08T21:27:44.585Z,43.47
2023-05-08T21:30:15.529Z,45.17
2023-05-08T21:32:45.815Z,45.35
2023-05-08T21:35:13.331Z,43.30
2023-05-08T21:37:40.030Z,42.28
2023-05-08T21:40:07.214Z,43.70
2023-05-08T21:42:33.708Z,43.85
2023-05-08T21:45:00.124Z,44.63
2023-05-08T21:47:29.501Z,40.00
2023-05-08T21:49:55.938Z,45.05
2023-05-08T21:52:22.588Z,45.15
2023-05-08T21:54:52.915Z,46.35
2023-05-08T21:57:19.483Z,48.10
2023-05-08T21:59:45.860Z,47.78
2023-05-08T22:02:12.712Z,44.00
2023-05-08T22:04:39.158Z,45.05
2023-05-08T22:07:05.672Z,46.42
2023-05-08T22:09:32.147Z,46.03
2023-05-08T22:11:58.592Z,46.67
2023-05-08T22:14:25.027Z,39.28
2023-05-08T22:16:51.466Z,48.83
2023-05-08T22:19:17.970Z,45.28
2023-05-08T22:21:44.366Z,42.47
2023-05-08T22:24:10.792Z,44.13
2023-05-08T22:26:37.165Z,47.20
2023-05-08T22:29:03.593Z,46.15
2023-05-08T22:31:30.142Z,50.95
2023-05-08T22:33:58.143Z,46.58
2023-05-08T22:36:24.632Z,44.58
2023-05-08T22:38:51.008Z,45.20
2023-05-08T22:41:17.600Z,45.15
2023-05-08T22:43:43.996Z,46.67
2023-05-08T22:46:11.445Z,47.53
2023-05-08T22:48:37.990Z,46.25
2023-05-08T22:51:04.900Z,47.85
2023-05-08T22:53:31.332Z,47.90
2023-05-08T22:55:57.780Z,50.05
2023-05-08T22:58:25.258Z,45.20
2023-05-08T23:00:51.981Z,49.85
2023-05-08T23:03:18.522Z,45.67
2023-05-08T23:05:44.887Z,66.38
2023-05-08T23:08:11.346Z,54.05
2023-05-08T23:10:37.823Z,51.92
2023-05-08T23:13:04.312Z,51.13
2023-05-08T23:15:30.780Z,53.85
2023-05-08T23:17:57.281Z,54.58
2023-05-08T23:20:23.709Z,59.78
2023-05-08T23:22:50.124Z,58.97
2023-05-08T23:25:16.757Z,65.03
2023-05-08T23:27:43.260Z,59.10
2023-05-08T23:30:13.041Z,54.28
2023-05-08T23:32:39.910Z,55.10
2023-05-08T23:35:06.861Z,65.78
2023-05-08T23:37:33.241Z,75.55
2023-05-08T23:39:59.622Z,73.70
2023-05-08T23:42:26.338Z,82.30
2023-05-08T23:44:52.700Z,76.65
2023-05-08T23:47:20.834Z,73.93
2023-05-08T23:49:47.522Z,83.00
2023-05-08T23:52:14.000Z,78.10
2023-05-08T23:54:40.384Z,77.95
2023-05-08T23:57:06.902Z,78.68
2023-05-08T23:59:33.331Z,75.55
